CheckWX is a tool to help pilots better visualize weather data.  It is not intended as a substitute for an official pre-flight weather briefing.

06:46:35 UTC

33N METAR
Delaware Airpark
Dover/Cheswold, Delaware, USA
Current

32 mins ago

K33N 160615Z AUTO 21007KT 10SM CLR 20/15 A2997 RMK A01
Observed
Jun-16 @ 06:15 UTC
Wind
  • 210° at 7 KTS
Visibility
10 SM
Flight Rules
VFR
Cloud Levels
  • Clear skies
Temperature
20°C / 68°F
Dewpoint
15°C / 59°F
Humidity
73%
Altimeter
29.97" Hg
Pressure
1014.92 hPa
Previous

52 mins ago

K33N 160555Z AUTO 20008KT 10SM CLR 20/15 A2997 RMK A01
Observed
Jun-16 @ 05:55 UTC
Wind
  • 200° at 8 KTS
Visibility
10 SM
Flight Rules
VFR
Cloud Levels
  • Clear skies
Temperature
20°C / 68°F
Dewpoint
15°C / 59°F
Humidity
73%
Altimeter
29.97" Hg
Pressure
1014.92 hPa
Previous

1 hour ago

K33N 160535Z AUTO 20005KT 10SM CLR 20/15 A2998 RMK A01
Observed
Jun-16 @ 05:35 UTC
Wind
  • 200° at 5 KTS
Visibility
10 SM
Flight Rules
VFR
Cloud Levels
  • Clear skies
Temperature
20°C / 68°F
Dewpoint
15°C / 59°F
Humidity
73%
Altimeter
29.98" Hg
Pressure
1015.22 hPa